Time;durP1;ratioP1;P1;durP2;ratioP2;P2;SDS_P1;SDS_P2;PMS_P1;PMS_P2;Temp;Humidity;BMP_temperature;BMP_pressure;BME280_temperature;BME280_humidity;BME280_pressure;Samples;Min_cycle;Max_cycle;Signal;HPM_P1;HPM_P2
2023/06/29 00:01:25;;;;;;;8.93;6.67;;;18.60;1.00;;;;;;5031128;28;20464;-76
2023/06/29 00:03:50;;;;;;;14.57;6.27;;;18.50;1.00;;;;;;5027511;28;20528;-73
2023/06/29 00:06:17;;;;;;;9.80;7.23;;;18.50;1.00;;;;;;5030702;28;20239;-74
2023/06/29 00:08:43;;;;;;;8.67;6.60;;;18.40;1.00;;;;;;5030723;28;20177;-74
2023/06/29 00:11:08;;;;;;;11.23;6.80;;;18.40;1.00;;;;;;5030906;28;20529;-74
2023/06/29 00:13:34;;;;;;;8.60;6.60;;;18.40;1.00;;;;;;5030596;28;20331;-74
2023/06/29 00:16:00;;;;;;;15.80;6.03;;;18.30;1.00;;;;;;5030854;28;20256;-76
2023/06/29 00:18:28;;;;;;;7.30;6.53;;;18.30;1.00;;;;;;5030708;28;20205;-74
2023/06/29 00:20:54;;;;;;;8.03;6.60;;;18.20;1.00;;;;;;5030911;28;20256;-74
2023/06/29 00:23:20;;;;;;;8.00;6.00;;;18.20;1.00;;;;;;5031261;28;20915;-74
2023/06/29 00:25:47;;;;;;;9.73;7.30;;;18.10;1.00;;;;;;5030244;28;20448;-74
2023/06/29 00:28:13;;;;;;;8.40;6.37;;;19.20;1.00;;;;;;5029428;28;20186;-75
2023/06/29 00:30:38;;;;;;;11.17;6.67;;;18.10;1.00;;;;;;5030414;28;20460;-74
2023/06/29 00:33:04;;;;;;;8.63;6.07;;;18.00;1.00;;;;;;5028621;28;20514;-74
2023/06/29 00:35:29;;;;;;;8.63;6.40;;;18.00;1.00;;;;;;5030547;28;20201;-74
2023/06/29 00:37:56;;;;;;;8.87;6.50;;;18.00;1.00;;;;;;5030155;28;20263;-74
2023/06/29 00:40:21;;;;;;;8.97;6.23;;;18.10;1.00;;;;;;5030374;28;20702;-74
2023/06/29 00:42:47;;;;;;;8.10;6.70;;;18.10;1.00;;;;;;5030062;28;20516;-74
2023/06/29 00:45:12;;;;;;;8.80;6.53;;;18.00;1.00;;;;;;5030135;28;20533;-74
2023/06/29 00:47:38;;;;;;;13.43;6.50;;;18.00;1.00;;;;;;5028654;28;20276;-74
2023/06/29 00:50:05;;;;;;;9.87;6.30;;;18.00;1.00;;;;;;5029052;28;20185;-74
2023/06/29 00:52:31;;;;;;;9.00;6.33;;;17.90;1.00;;;;;;5030127;28;20185;-74
2023/06/29 00:54:57;;;;;;;9.40;6.50;;;17.90;1.00;;;;;;5029778;28;20524;-74
2023/06/29 00:57:24;;;;;;;7.03;6.20;;;17.90;1.00;;;;;;5030232;28;20190;-74
2023/06/29 00:59:49;;;;;;;8.20;5.90;;;17.90;1.00;;;;;;5029841;28;20456;-73
2023/06/29 01:02:15;;;;;;;6.40;5.77;;;18.00;1.00;;;;;;5030124;28;20475;-74
2023/06/29 01:04:45;;;;;;;7.60;5.83;;;18.00;1.00;;;;;;5029915;28;20185;-74
2023/06/29 01:07:42;;;;;;;9.43;6.13;;;17.80;1.00;;;;;;5028598;28;20625;-74
2023/06/29 01:10:10;;;;;;;8.20;6.07;;;17.80;1.00;;;;;;5023384;28;20478;-74
2023/06/29 01:12:38;;;;;;;12.43;6.30;;;17.80;1.00;;;;;;5029634;28;20424;-74
2023/06/29 01:15:05;;;;;;;7.87;6.20;;;17.70;1.00;;;;;;5028475;28;20425;-74
2023/06/29 01:17:32;;;;;;;8.80;6.10;;;17.70;1.00;;;;;;5029837;28;20506;-75
2023/06/29 01:19:59;;;;;;;8.87;5.83;;;17.80;1.00;;;;;;5020187;28;20519;-74
2023/06/29 01:22:34;;;;;;;10.53;6.10;;;17.90;1.00;;;;;;5029801;28;20416;-75
2023/06/29 01:25:00;;;;;;;6.83;5.83;;;17.80;1.00;;;;;;5021788;28;20408;-74
2023/06/29 01:27:26;;;;;;;7.57;6.50;;;17.80;1.00;;;;;;5029335;28;20447;-75
2023/06/29 01:29:55;;;;;;;7.20;6.00;;;17.80;1.00;;;;;;5027580;28;20223;-75
2023/06/29 01:32:33;;;;;;;9.80;6.80;;;17.80;1.00;;;;;;5026624;28;20508;-74
2023/06/29 01:34:59;;;;;;;8.33;6.60;;;17.70;1.00;;;;;;5021471;28;20426;-73
2023/06/29 01:37:28;;;;;;;7.30;6.47;;;17.70;1.00;;;;;;5029542;28;20425;-74
2023/06/29 01:39:58;;;;;;;6.90;6.20;;;17.60;1.00;;;;;;5029102;28;20460;-73
2023/06/29 01:42:25;;;;;;;8.07;6.50;;;17.50;1.00;;;;;;5029829;28;20453;-74
2023/06/29 01:44:53;;;;;;;9.40;6.50;;;17.50;1.00;;;;;;5024767;28;20416;-74
2023/06/29 01:47:20;;;;;;;8.70;6.20;;;17.50;1.00;;;;;;5027766;28;20535;-74
2023/06/29 01:49:45;;;;;;;7.63;6.20;;;17.60;1.00;;;;;;5027913;28;20531;-76
2023/06/29 01:52:11;;;;;;;8.43;6.57;;;17.60;1.00;;;;;;5029299;28;20578;-75
2023/06/29 01:54:37;;;;;;;9.70;6.50;;;17.60;1.00;;;;;;5029235;28;20663;-73
2023/06/29 01:57:06;;;;;;;7.60;6.30;;;17.60;1.00;;;;;;5029240;28;20210;-74
2023/06/29 01:59:32;;;;;;;7.30;6.60;;;17.70;1.00;;;;;;5027897;28;20319;-74
2023/06/29 02:01:58;;;;;;;7.80;6.00;;;17.70;1.00;;;;;;5028776;28;20417;-74
2023/06/29 02:04:23;;;;;;;7.40;6.07;;;17.80;1.00;;;;;;5028113;28;20324;-76
2023/06/29 02:06:49;;;;;;;8.43;6.20;;;17.80;1.00;;;;;;5028899;28;20252;-74
2023/06/29 02:09:15;;;;;;;6.80;6.10;;;17.80;1.00;;;;;;5028105;28;20368;-74
2023/06/29 02:11:40;;;;;;;7.60;6.13;;;17.70;1.00;;;;;;5028807;28;20186;-74
2023/06/29 02:14:06;;;;;;;15.67;6.33;;;17.70;1.00;;;;;;5029121;28;20189;-74
2023/06/29 02:16:31;;;;;;;10.73;6.73;;;17.70;1.00;;;;;;5029041;28;20209;-76
2023/06/29 02:18:57;;;;;;;7.40;6.70;;;17.60;1.00;;;;;;5028786;28;20348;-74
2023/06/29 02:21:22;;;;;;;8.40;6.77;;;17.60;1.00;;;;;;5027695;28;20264;-74
2023/06/29 02:23:48;;;;;;;10.33;6.20;;;17.50;1.00;;;;;;5027499;28;20201;-75
2023/06/29 02:26:13;;;;;;;12.63;7.00;;;17.50;1.00;;;;;;5029026;28;20254;-73
2023/06/29 02:28:39;;;;;;;9.23;6.10;;;17.50;1.00;;;;;;5028706;28;20609;-73
2023/06/29 02:31:05;;;;;;;8.50;6.83;;;17.40;1.00;;;;;;5029051;28;20193;-75
2023/06/29 02:33:30;;;;;;;8.57;6.83;;;17.30;1.00;;;;;;5027068;28;20190;-74
2023/06/29 02:35:56;;;;;;;7.70;6.90;;;17.20;1.00;;;;;;5028355;28;20209;-74
2023/06/29 02:38:21;;;;;;;9.00;6.73;;;17.10;1.00;;;;;;5029427;28;20225;-74
2023/06/29 02:40:47;;;;;;;10.23;6.93;;;17.10;1.00;;;;;;5029866;28;20667;-76
2023/06/29 02:43:14;;;;;;;7.53;6.73;;;17.00;1.00;;;;;;5032493;28;20178;-74
2023/06/29 02:45:39;;;;;;;7.37;6.67;;;17.00;1.00;;;;;;5032640;28;20301;-73
2023/06/29 02:48:05;;;;;;;7.43;6.60;;;17.00;1.00;;;;;;5032674;28;20519;-74
2023/06/29 02:50:30;;;;;;;10.67;7.03;;;17.00;1.00;;;;;;5031163;28;20587;-74
2023/06/29 02:52:56;;;;;;;6.90;6.20;;;17.10;1.00;;;;;;5032213;28;20244;-74
2023/06/29 02:55:22;;;;;;;8.03;6.40;;;17.10;1.00;;;;;;5032500;28;20240;-76
2023/06/29 02:57:48;;;;;;;7.40;6.30;;;17.00;1.00;;;;;;5030555;28;20632;-74
2023/06/29 03:00:14;;;;;;;7.40;6.20;;;17.00;1.00;;;;;;5032438;28;20451;-75
2023/06/29 03:02:40;;;;;;;7.87;6.47;;;17.00;1.00;;;;;;5031396;28;20188;-74
2023/06/29 03:05:05;;;;;;;8.50;7.50;;;17.00;1.00;;;;;;5032300;28;20499;-74
2023/06/29 03:07:32;;;;;;;12.50;6.37;;;17.00;1.00;;;;;;5032328;28;20559;-74
2023/06/29 03:09:57;;;;;;;7.70;6.70;;;16.90;1.00;;;;;;5030633;28;20231;-73
2023/06/29 03:12:23;;;;;;;7.30;6.37;;;17.60;1.00;;;;;;5032048;28;20426;-74
2023/06/29 03:14:49;;;;;;;6.90;6.20;;;16.70;1.00;;;;;;5030552;28;20199;-75
2023/06/29 03:17:14;;;;;;;7.00;6.30;;;16.60;1.00;;;;;;5030614;28;20205;-74
2023/06/29 03:19:40;;;;;;;9.23;6.67;;;16.60;1.00;;;;;;5032272;28;20213;-74
2023/06/29 03:22:06;;;;;;;9.17;6.70;;;16.60;1.00;;;;;;5022563;28;20232;-74
2023/06/29 03:24:31;;;;;;;6.83;6.00;;;16.60;1.00;;;;;;5031707;28;20548;-75
2023/06/29 03:26:57;;;;;;;7.23;6.10;;;16.60;1.00;;;;;;5031363;28;20297;-75
2023/06/29 03:29:22;;;;;;;9.07;6.13;;;16.60;1.00;;;;;;5032053;28;20278;-75
2023/06/29 03:31:48;;;;;;;7.00;6.30;;;16.50;1.00;;;;;;5031140;28;20558;-74
2023/06/29 03:34:13;;;;;;;8.40;6.47;;;16.60;1.00;;;;;;5031847;28;20243;-73
2023/06/29 03:36:39;;;;;;;7.30;5.80;;;16.50;1.00;;;;;;5031473;28;20210;-74
2023/06/29 03:39:05;;;;;;;9.67;6.37;;;16.50;1.00;;;;;;5046693;28;20212;-74
2023/06/29 03:41:30;;;;;;;7.53;6.20;;;16.40;1.00;;;;;;5032046;28;20178;-74
2023/06/29 03:43:56;;;;;;;8.67;6.10;;;16.40;1.00;;;;;;5031173;28;20206;-76
2023/06/29 03:46:22;;;;;;;9.30;6.10;;;16.40;1.00;;;;;;5031216;28;20217;-73
2023/06/29 03:48:47;;;;;;;8.27;5.90;;;16.40;1.00;;;;;;5031291;28;20204;-74
2023/06/29 03:51:13;;;;;;;7.80;5.93;;;16.40;1.00;;;;;;5031554;28;20429;-74
2023/06/29 03:53:39;;;;;;;8.40;6.37;;;16.40;1.00;;;;;;5031291;28;20185;-76
2023/06/29 03:56:04;;;;;;;10.57;6.10;;;16.40;1.00;;;;;;5029519;28;20458;-74
2023/06/29 03:58:30;;;;;;;6.87;5.77;;;16.50;1.00;;;;;;5031322;28;20201;-74
2023/06/29 04:00:55;;;;;;;9.00;6.63;;;16.50;1.00;;;;;;5031026;28;20228;-74
2023/06/29 04:03:21;;;;;;;7.80;6.23;;;16.70;1.00;;;;;;5031264;28;20707;-76
2023/06/29 04:05:46;;;;;;;7.63;6.80;;;16.70;1.00;;;;;;5030810;28;20209;-74
2023/06/29 04:08:12;;;;;;;7.43;6.40;;;16.80;1.00;;;;;;5031242;28;20182;-74
2023/06/29 04:10:37;;;;;;;8.73;6.63;;;16.80;1.00;;;;;;5031116;28;20822;-75
2023/06/29 04:13:03;;;;;;;7.60;6.70;;;16.80;1.00;;;;;;5029596;28;20676;-74
2023/06/29 04:15:30;;;;;;;8.83;6.93;;;16.90;1.00;;;;;;5024272;28;20205;-74
2023/06/29 04:17:55;;;;;;;9.10;6.90;;;17.00;1.00;;;;;;5030772;28;20272;-76
2023/06/29 04:20:21;;;;;;;7.50;6.70;;;17.00;1.00;;;;;;5030998;28;20938;-74
2023/06/29 04:22:47;;;;;;;8.03;7.30;;;16.80;1.00;;;;;;5030575;28;20186;-74
2023/06/29 04:25:12;;;;;;;7.60;6.77;;;17.20;1.00;;;;;;5031211;28;20177;-74
2023/06/29 04:27:38;;;;;;;10.37;6.70;;;17.20;1.00;;;;;;5030707;28;20209;-73
2023/06/29 04:30:04;;;;;;;8.93;7.00;;;17.30;1.00;;;;;;5030370;28;20316;-74
2023/06/29 04:32:30;;;;;;;8.40;7.13;;;17.40;1.00;;;;;;5025960;28;20185;-73
2023/06/29 04:34:56;;;;;;;8.80;6.80;;;17.40;1.00;;;;;;5030381;28;20443;-74
2023/06/29 04:37:21;;;;;;;7.90;6.60;;;17.60;1.00;;;;;;5030977;28;20959;-74
2023/06/29 04:39:47;;;;;;;7.33;6.63;;;17.70;1.00;;;;;;5030203;28;20291;-74
2023/06/29 04:42:13;;;;;;;8.20;6.63;;;17.80;1.00;;;;;;5030346;28;20680;-74
2023/06/29 04:44:43;;;;;;;7.20;6.43;;;17.80;1.00;;;;;;5030418;28;20181;-74
2023/06/29 04:47:09;;;;;;;8.40;6.60;;;17.90;1.00;;;;;;5029775;28;20229;-74
2023/06/29 04:49:37;;;;;;;9.90;6.87;;;18.00;1.00;;;;;;5030532;28;20799;-74
2023/06/29 04:52:03;;;;;;;8.40;6.40;;;18.00;1.00;;;;;;5029905;28;20463;-74
2023/06/29 04:54:29;;;;;;;8.03;6.90;;;18.00;1.00;;;;;;5030299;28;20431;-74
2023/06/29 04:56:56;;;;;;;7.93;7.13;;;18.10;1.00;;;;;;5029678;28;20471;-73
2023/06/29 04:59:23;;;;;;;9.07;6.80;;;18.20;1.00;;;;;;5028879;28;20252;-75
2023/06/29 05:01:49;;;;;;;11.03;7.83;;;18.30;1.00;;;;;;5028292;28;20429;-73
2023/06/29 05:04:14;;;;;;;7.30;6.60;;;18.30;1.00;;;;;;5029300;28;20507;-74
2023/06/29 05:06:40;;;;;;;8.57;6.70;;;18.40;1.00;;;;;;5029539;28;20236;-74
2023/06/29 05:09:05;;;;;;;7.00;6.33;;;18.40;1.00;;;;;;5029514;28;20822;-75
2023/06/29 05:11:31;;;;;;;9.33;6.60;;;18.60;1.00;;;;;;5029903;28;20197;-73
2023/06/29 05:13:56;;;;;;;10.00;7.27;;;18.70;1.00;;;;;;5029661;28;20189;-74
2023/06/29 05:16:22;;;;;;;7.40;6.60;;;18.80;1.00;;;;;;5030080;28;20750;-74
2023/06/29 05:18:47;;;;;;;8.50;7.10;;;18.90;1.00;;;;;;5029528;28;20214;-73
2023/06/29 05:21:14;;;;;;;10.23;6.83;;;19.00;1.00;;;;;;5029518;28;20174;-76
2023/06/29 05:23:40;;;;;;;8.67;7.30;;;19.20;1.00;;;;;;5029855;28;20205;-74
2023/06/29 05:26:05;;;;;;;8.83;6.80;;;19.30;1.00;;;;;;5029380;28;20479;-74
2023/06/29 05:28:31;;;;;;;8.57;6.43;;;19.40;1.00;;;;;;5029759;28;20269;-74
2023/06/29 05:30:57;;;;;;;7.07;6.37;;;19.50;1.00;;;;;;5028171;28;20186;-74
2023/06/29 05:33:23;;;;;;;9.60;6.07;;;19.70;1.00;;;;;;5023483;28;20424;-74
2023/06/29 05:35:49;;;;;;;7.70;5.70;;;20.10;1.00;;;;;;5029240;28;20217;-74
2023/06/29 05:38:14;;;;;;;11.93;6.37;;;19.90;1.00;;;;;;5029327;28;20464;-73
2023/06/29 05:40:40;;;;;;;8.60;6.90;;;20.10;1.00;;;;;;5028250;28;20239;-73
2023/06/29 05:43:06;;;;;;;8.97;6.20;;;20.30;1.00;;;;;;5029547;28;20680;-77
2023/06/29 05:45:31;;;;;;;13.47;6.90;;;20.40;1.00;;;;;;5029237;28;20221;-74
2023/06/29 05:47:57;;;;;;;10.60;6.60;;;20.50;1.00;;;;;;5029107;28;20185;-73
2023/06/29 05:50:23;;;;;;;11.97;7.00;;;20.60;1.00;;;;;;5029500;28;20260;-74
2023/06/29 05:52:48;;;;;;;11.00;6.70;;;20.60;1.00;;;;;;5029289;28;20369;-74
2023/06/29 05:55:14;;;;;;;8.80;7.00;;;20.80;1.00;;;;;;5029645;28;20178;-73
2023/06/29 05:57:39;;;;;;;11.20;7.70;;;20.80;1.00;;;;;;5029345;28;20188;-74
2023/06/29 06:00:11;;;;;;;12.67;7.20;;;20.80;1.00;;;;;;5029042;28;20714;-76
2023/06/29 06:02:37;;;;;;;9.17;7.00;;;20.70;1.00;;;;;;5027996;28;20185;-75
2023/06/29 06:05:03;;;;;;;8.57;6.23;;;20.80;1.00;;;;;;5027876;28;20428;-74
2023/06/29 06:07:29;;;;;;;8.53;7.13;;;20.70;1.00;;;;;;5029328;28;20285;-73
2023/06/29 06:09:56;;;;;;;9.40;7.00;;;20.80;1.00;;;;;;5029022;28;20431;-73
2023/06/29 06:12:22;;;;;;;10.47;6.43;;;20.80;1.00;;;;;;5028021;28;20432;-75
2023/06/29 06:14:47;;;;;;;8.83;6.60;;;20.80;1.00;;;;;;5029246;28;20428;-75
2023/06/29 06:17:13;;;;;;;11.43;6.40;;;20.90;1.00;;;;;;5030920;28;20443;-74
2023/06/29 06:19:38;;;;;;;7.47;6.40;;;21.00;1.00;;;;;;5033361;28;20212;-75
2023/06/29 06:22:04;;;;;;;11.40;6.23;;;21.10;1.00;;;;;;5031334;28;20189;-74
2023/06/29 06:24:29;;;;;;;9.40;6.67;;;21.20;1.00;;;;;;5033345;28;20181;-74
2023/06/29 06:26:55;;;;;;;8.93;5.50;;;21.20;1.00;;;;;;5031213;28;20205;-74
2023/06/29 06:29:20;;;;;;;7.82;5.30;;;21.30;1.00;;;;;;5032767;28;20421;-75
2023/06/29 06:31:46;;;;;;;8.37;5.80;;;21.50;1.00;;;;;;5028705;28;20687;-73
2023/06/29 06:34:11;;;;;;;7.87;5.50;;;21.60;1.00;;;;;;5047933;28;20208;-73
2023/06/29 06:36:37;;;;;;;8.00;5.87;;;21.70;1.00;;;;;;5031694;28;20256;-74
2023/06/29 06:39:03;;;;;;;8.53;5.73;;;21.80;1.00;;;;;;5032906;28;20201;-74
2023/06/29 06:41:28;;;;;;;7.30;5.80;;;21.90;1.00;;;;;;5033493;28;20450;-73
2023/06/29 06:43:54;;;;;;;6.10;5.10;;;22.10;1.00;;;;;;5031313;28;20695;-73
2023/06/29 06:46:19;;;;;;;6.90;5.80;;;22.10;1.00;;;;;;5032800;28;20236;-73
2023/06/29 06:48:45;;;;;;;8.80;5.67;;;22.30;1.00;;;;;;5032894;28;20193;-73
2023/06/29 06:51:10;;;;;;;11.10;5.47;;;22.40;1.00;;;;;;5030970;28;20289;-73
2023/06/29 06:53:36;;;;;;;8.20;5.97;;;22.60;1.00;;;;;;5032730;28;20196;-74
2023/06/29 06:56:01;;;;;;;7.83;4.93;;;22.70;1.00;;;;;;5030978;28;20673;-73
2023/06/29 06:58:27;;;;;;;7.00;5.13;;;21.80;1.00;;;;;;5032600;28;20250;-74
2023/06/29 07:00:52;;;;;;;6.70;4.90;;;23.10;1.00;;;;;;5032724;28;20185;-74
2023/06/29 07:03:19;;;;;;;8.53;4.57;;;23.30;1.00;;;;;;5024380;28;20551;-76
2023/06/29 07:05:45;;;;;;;13.40;5.10;;;23.50;1.00;;;;;;5031138;28;20200;-75
2023/06/29 07:08:11;;;;;;;10.37;4.83;;;23.70;1.00;;;;;;5031919;28;20439;-74
2023/06/29 07:10:36;;;;;;;11.50;4.70;;;23.90;1.00;;;;;;5032635;28;20428;-77
2023/06/29 07:13:02;;;;;;;6.83;4.27;;;24.00;1.00;;;;;;5032236;28;20173;-74
2023/06/29 07:15:27;;;;;;;7.33;4.50;;;24.20;1.00;;;;;;5032320;28;20213;-74
2023/06/29 07:17:53;;;;;;;11.07;4.53;;;24.40;1.00;;;;;;5032257;28;20185;-75
2023/06/29 07:20:19;;;;;;;6.03;4.17;;;24.50;1.00;;;;;;5031935;28;20173;-76
2023/06/29 07:22:44;;;;;;;8.80;4.40;;;24.60;1.00;;;;;;5032227;28;20576;-75
2023/06/29 07:25:11;;;;;;;6.87;4.47;;;24.90;1.00;;;;;;5032249;28;20652;-75
2023/06/29 07:27:37;;;;;;;6.03;3.80;;;24.90;1.00;;;;;;5029946;28;20189;-74
2023/06/29 07:30:03;;;;;;;6.70;4.30;;;25.00;1.00;;;;;;5032018;28;20651;-75
2023/06/29 07:32:29;;;;;;;6.07;4.03;;;25.20;1.00;;;;;;5026253;28;20439;-74
2023/06/29 07:34:54;;;;;;;6.73;4.53;;;25.20;1.00;;;;;;5032169;28;20438;-75
2023/06/29 07:37:21;;;;;;;12.13;3.77;;;25.50;1.00;;;;;;5030679;28;20704;-75
2023/06/29 07:39:47;;;;;;;4.63;3.50;;;25.90;1.00;;;;;;5032319;28;20243;-75
2023/06/29 07:42:12;;;;;;;6.03;3.73;;;26.30;1.00;;;;;;5031350;28;20859;-75
2023/06/29 07:44:38;;;;;;;7.37;3.77;;;26.80;1.00;;;;;;5031822;28;20199;-74
2023/06/29 07:47:04;;;;;;;6.90;4.20;;;27.10;1.00;;;;;;5029834;28;20410;-75
2023/06/29 07:49:30;;;;;;;4.93;3.50;;;27.40;1.00;;;;;;5031870;28;20219;-75
2023/06/29 07:51:56;;;;;;;5.00;3.50;;;27.70;1.00;;;;;;5031706;28;20212;-75
2023/06/29 07:54:22;;;;;;;5.90;3.70;;;28.10;1.00;;;;;;5023900;28;20735;-75
2023/06/29 07:56:47;;;;;;;5.77;3.70;;;28.40;1.00;;;;;;5030311;28;20300;-75
2023/06/29 07:59:13;;;;;;;7.10;4.00;;;28.70;1.00;;;;;;5031304;28;20278;-77
2023/06/29 08:01:38;;;;;;;4.60;3.40;;;29.00;1.00;;;;;;5031731;28;20212;-75
2023/06/29 08:04:05;;;;;;;5.50;3.70;;;29.10;1.00;;;;;;5030127;28;20590;-75
2023/06/29 08:06:33;;;;;;;7.10;3.57;;;29.20;1.00;;;;;;5031437;28;20243;-75
2023/06/29 08:09:00;;;;;;;8.13;3.67;;;29.50;1.00;;;;;;5031204;28;20250;-74
2023/06/29 08:11:26;;;;;;;7.00;3.60;;;29.70;1.00;;;;;;5031340;28;20647;-75
2023/06/29 08:13:51;;;;;;;7.57;3.67;;;30.00;1.00;;;;;;5031346;28;20192;-77
2023/06/29 08:16:17;;;;;;;5.25;3.58;;;30.10;1.00;;;;;;5045994;28;20212;-75
2023/06/29 08:18:42;;;;;;;5.07;3.60;;;30.00;1.00;;;;;;5031227;28;20220;-75
2023/06/29 08:21:10;;;;;;;7.20;3.78;;;29.90;1.00;;;;;;5029550;28;20181;-76
2023/06/29 08:23:35;;;;;;;10.60;4.68;;;30.00;1.00;;;;;;5031478;28;20556;-75
2023/06/29 08:26:02;;;;;;;7.13;3.70;;;29.20;1.00;;;;;;5030925;28;20313;-75
2023/06/29 08:28:28;;;;;;;4.38;3.50;;;30.10;1.00;;;;;;5030764;28;20185;-75
2023/06/29 08:30:53;;;;;;;6.88;3.55;;;29.90;1.00;;;;;;5031090;28;20177;-74
2023/06/29 08:33:20;;;;;;;5.50;3.65;;;29.60;1.00;;;;;;5036277;28;20185;-75
2023/06/29 08:35:45;;;;;;;5.70;3.53;;;29.60;1.00;;;;;;5029607;28;20204;-75
2023/06/29 08:38:11;;;;;;;6.68;3.75;;;29.80;1.00;;;;;;5030370;28;20221;-76
2023/06/29 08:40:38;;;;;;;4.50;3.45;;;30.00;1.00;;;;;;5030926;28;20192;-75
2023/06/29 08:43:04;;;;;;;6.05;3.38;;;30.10;1.00;;;;;;5030371;28;20185;-75
2023/06/29 08:45:32;;;;;;;4.50;3.10;;;30.10;1.00;;;;;;5030754;28;20263;-78
2023/06/29 08:48:00;;;;;;;4.93;2.90;;;30.30;1.00;;;;;;5030533;28;20188;-75
2023/06/29 08:50:27;;;;;;;6.95;3.47;;;30.30;1.00;;;;;;5021376;28;20191;-76
2023/06/29 08:52:54;;;;;;;5.70;3.78;;;30.30;1.00;;;;;;5030559;28;20588;-75
2023/06/29 08:55:20;;;;;;;4.28;3.58;;;30.00;1.00;;;;;;5030134;28;20290;-75
2023/06/29 08:57:45;;;;;;;4.35;3.20;;;30.20;1.00;;;;;;5030600;28;20185;-75
2023/06/29 09:00:13;;;;;;;4.25;3.33;;;31.00;1.00;;;;;;5028673;28;20213;-76
2023/06/29 09:02:39;;;;;;;5.45;3.20;;;31.70;1.00;;;;;;5028868;28;20185;-75
2023/06/29 09:05:05;;;;;;;4.60;3.30;;;33.10;1.00;;;;;;5030095;28;20189;-74
2023/06/29 09:07:31;;;;;;;9.93;3.45;;;33.10;1.00;;;;;;5030021;28;20177;-76
2023/06/29 09:09:57;;;;;;;8.32;3.08;;;33.80;1.00;;;;;;5028887;28;20671;-75
2023/06/29 09:12:22;;;;;;;7.32;2.83;;;33.90;1.00;;;;;;5029888;28;20193;-77
2023/06/29 09:14:48;;;;;;;7.50;3.15;;;33.60;1.00;;;;;;5030520;28;20197;-77
2023/06/29 09:17:16;;;;;;;4.57;2.83;;;33.80;1.00;;;;;;5029387;28;20228;-75
2023/06/29 09:19:57;;;;;;;5.68;2.75;;;34.50;1.00;;;;;;5030143;28;20691;-75
2023/06/29 09:22:25;;;;;;;6.28;3.03;;;34.80;1.00;;;;;;5029799;28;20189;-75
2023/06/29 09:24:56;;;;;;;5.38;2.95;;;34.90;1.00;;;;;;5028603;28;20280;-76
2023/06/29 09:27:21;;;;;;;4.82;2.92;;;34.80;1.00;;;;;;5029582;28;20289;-76
2023/06/29 09:29:52;;;;;;;5.47;2.80;;;33.90;1.00;;;;;;5029951;28;20265;-76
2023/06/29 09:32:17;;;;;;;4.43;2.85;;;33.60;1.00;;;;;;5026810;28;20532;-75
2023/06/29 09:34:48;;;;;;;4.22;2.83;;;33.60;1.00;;;;;;5029993;28;20268;-76
2023/06/29 09:37:17;;;;;;;3.67;2.60;;;33.60;1.00;;;;;;5029205;28;20304;-75
2023/06/29 09:40:09;;;;;;;7.97;3.22;;;33.50;1.00;;;;;;5028153;28;20204;-76
2023/06/29 09:42:39;;;;;;;4.90;2.92;;;33.70;1.00;;;;;;5022766;28;20259;-77
2023/06/29 09:45:11;;;;;;;4.50;3.40;;;33.50;1.00;;;;;;5029104;28;20209;-75
2023/06/29 09:47:39;;;;;;;4.30;2.80;;;33.50;1.00;;;;;;5028323;28;20181;-77
2023/06/29 09:50:16;;;;;;;7.28;3.10;;;33.10;1.00;;;;;;5027503;28;20194;-77
2023/06/29 09:52:46;;;;;;;4.90;3.45;;;32.50;1.00;;;;;;5028114;28;20201;-74
2023/06/29 09:55:14;;;;;;;6.80;3.10;;;32.10;1.00;;;;;;5029231;28;20188;-75
2023/06/29 09:57:42;;;;;;;6.85;3.05;;;32.10;1.00;;;;;;5029444;28;20181;-75
2023/06/29 10:00:11;;;;;;;8.80;3.00;;;31.90;1.00;;;;;;5029176;28;20205;-76
2023/06/29 10:02:39;;;;;;;6.22;2.90;;;31.80;1.00;;;;;;5029164;28;20188;-77
2023/06/29 10:05:04;;;;;;;7.47;3.40;;;31.70;1.00;;;;;;5027379;28;20676;-74
2023/06/29 10:07:32;;;;;;;7.28;3.40;;;31.70;1.00;;;;;;5029429;28;20211;-75
2023/06/29 10:09:59;;;;;;;6.13;3.70;;;32.00;1.00;;;;;;5029377;28;20560;-75
2023/06/29 10:12:27;;;;;;;6.53;3.60;;;31.70;1.00;;;;;;5027742;28;20189;-75
2023/06/29 10:14:58;;;;;;;7.40;3.25;;;31.40;1.00;;;;;;5029156;28;20182;-75
2023/06/29 10:17:30;;;;;;;6.47;3.00;;;31.50;1.00;;;;;;5029019;28;20220;-75
2023/06/29 10:19:57;;;;;;;6.80;3.40;;;31.80;1.00;;;;;;5029405;28;20567;-75
2023/06/29 10:22:25;;;;;;;5.97;3.50;;;32.90;1.00;;;;;;5028804;28;20529;-75
2023/06/29 10:24:56;;;;;;;6.10;3.08;;;33.70;1.00;;;;;;5029115;28;20181;-75
2023/06/29 10:27:27;;;;;;;5.22;3.50;;;33.70;1.00;;;;;;5027659;28;20651;-76
2023/06/29 10:29:53;;;;;;;9.57;3.08;;;34.20;1.00;;;;;;5029188;28;20189;-75
2023/06/29 10:32:30;;;;;;;5.78;3.17;;;34.90;1.00;;;;;;5022166;28;20227;-78
2023/06/29 10:35:01;;;;;;;4.80;3.30;;;35.50;1.00;;;;;;5029334;28;20177;-76
2023/06/29 10:37:38;;;;;;;5.95;3.00;;;35.70;1.00;;;;;;5028618;28;20195;-74
2023/06/29 10:40:13;;;;;;;5.90;3.22;;;35.60;1.00;;;;;;5028998;28;20201;-75
2023/06/29 10:42:39;;;;;;;6.50;3.20;;;36.10;1.00;;;;;;5021872;28;20208;-77
2023/06/29 10:45:17;;;;;;;6.60;3.10;;;38.40;1.00;;;;;;5027224;28;20240;-76
2023/06/29 10:47:55;;;;;;;6.38;2.80;;;38.60;1.00;;;;;;5027614;28;20666;-76
2023/06/29 10:50:40;;;;;;;4.50;2.92;;;39.60;1.00;;;;;;5028721;28;20256;-76
2023/06/29 10:53:10;;;;;;;4.35;2.90;;;39.30;1.00;;;;;;5027481;28;20263;-76
2023/06/29 10:55:42;;;;;;;4.05;3.00;;;38.40;1.00;;;;;;5021329;28;20207;-76
2023/06/29 10:58:31;;;;;;;6.63;3.47;;;36.60;1.00;;;;;;5028070;28;20605;-75
2023/06/29 11:00:57;;;;;;;4.93;3.20;;;35.50;1.00;;;;;;5029480;28;20181;-76
2023/06/29 11:03:24;;;;;;;7.30;3.38;;;35.00;1.00;;;;;;5029581;28;20547;-78
2023/06/29 11:05:52;;;;;;;4.95;3.08;;;34.80;1.00;;;;;;5032562;28;20196;-76
2023/06/29 11:08:23;;;;;;;6.10;3.50;;;34.40;1.00;;;;;;5032481;28;20599;-76
2023/06/29 11:10:49;;;;;;;5.50;3.58;;;34.10;1.00;;;;;;5032726;28;20599;-75
2023/06/29 11:13:17;;;;;;;4.20;3.30;;;33.50;1.00;;;;;;5032073;28;20264;-75
2023/06/29 11:15:44;;;;;;;3.92;3.20;;;33.00;1.00;;;;;;5032214;28;20609;-75
2023/06/29 11:18:10;;;;;;;4.85;3.30;;;32.50;1.00;;;;;;5031914;28;20173;-75
2023/06/29 11:20:38;;;;;;;7.32;3.50;;;31.80;1.00;;;;;;5032447;28;20181;-75
2023/06/29 11:23:04;;;;;;;5.00;3.70;;;31.50;1.00;;;;;;5032610;28;20193;-75
2023/06/29 11:25:30;;;;;;;7.10;3.40;;;31.20;1.00;;;;;;5032017;28;20243;-75
2023/06/29 11:27:56;;;;;;;9.68;3.80;;;31.20;1.00;;;;;;5032735;28;20181;-76
2023/06/29 11:30:22;;;;;;;4.28;3.53;;;31.10;1.00;;;;;;5031937;28;20672;-75
2023/06/29 11:32:51;;;;;;;5.68;3.70;;;30.80;1.00;;;;;;5024536;28;20185;-75
2023/06/29 11:35:20;;;;;;;5.95;3.70;;;30.70;1.00;;;;;;5031415;28;20196;-76
2023/06/29 11:37:46;;;;;;;7.22;3.72;;;30.80;1.00;;;;;;5032098;28;20718;-75
2023/06/29 11:40:20;;;;;;;7.13;3.95;;;30.60;1.00;;;;;;5031772;28;20201;-75
2023/06/29 11:42:46;;;;;;;8.52;3.90;;;30.50;1.00;;;;;;5030534;28;20209;-75
2023/06/29 11:45:12;;;;;;;7.88;4.00;;;30.20;1.00;;;;;;5031212;28;20185;-74
2023/06/29 11:47:38;;;;;;;5.28;3.60;;;30.20;1.00;;;;;;5031785;28;20246;-75
2023/06/29 11:50:07;;;;;;;6.68;3.70;;;30.10;1.00;;;;;;5031905;28;20264;-75
2023/06/29 11:52:33;;;;;;;8.55;3.88;;;29.80;1.00;;;;;;5030142;28;20315;-77
2023/06/29 11:55:04;;;;;;;5.85;3.78;;;29.00;1.00;;;;;;5031897;28;20192;-77
2023/06/29 11:57:33;;;;;;;6.13;4.20;;;29.00;1.00;;;;;;5031103;28;20204;-74
2023/06/29 12:00:00;;;;;;;15.43;4.50;;;28.70;1.00;;;;;;5032009;28;20205;-74
2023/06/29 12:02:27;;;;;;;6.97;3.60;;;28.50;1.00;;;;;;5031463;28;20192;-75
2023/06/29 12:05:11;;;;;;;11.50;3.90;;;28.50;1.00;;;;;;5031556;28;20651;-74
2023/06/29 12:07:38;;;;;;;5.10;3.77;;;28.30;1.00;;;;;;5022031;28;20319;-75
2023/06/29 12:10:08;;;;;;;9.60;3.87;;;28.20;1.00;;;;;;5031365;28;20173;-74
2023/06/29 12:12:39;;;;;;;8.40;3.63;;;28.00;1.00;;;;;;5030951;28;20189;-75
2023/06/29 12:15:22;;;;;;;8.30;4.13;;;28.10;1.00;;;;;;5030735;28;20197;-75
2023/06/29 12:17:50;;;;;;;6.10;3.77;;;28.10;1.00;;;;;;5024685;28;20184;-74
2023/06/29 12:20:18;;;;;;;9.80;4.13;;;28.20;1.00;;;;;;5030831;28;20201;-75
2023/06/29 12:22:44;;;;;;;5.47;3.67;;;28.50;1.00;;;;;;5031096;28;20185;-74
2023/06/29 12:25:12;;;;;;;10.93;4.30;;;28.70;1.00;;;;;;5031261;28;20184;-75
2023/06/29 12:27:40;;;;;;;5.70;3.93;;;28.70;1.00;;;;;;5022984;28;20177;-74
2023/06/29 12:30:06;;;;;;;11.43;4.10;;;29.10;1.00;;;;;;5031244;28;20675;-75
2023/06/29 12:32:32;;;;;;;7.20;3.90;;;29.40;1.00;;;;;;5030229;28;20193;-75
2023/06/29 12:34:57;;;;;;;5.35;3.40;;;29.90;1.00;;;;;;5031203;28;20185;-75
2023/06/29 12:37:23;;;;;;;7.03;3.80;;;30.70;1.00;;;;;;5030842;28;20220;-75
2023/06/29 12:39:49;;;;;;;7.97;4.22;;;31.00;1.00;;;;;;5031011;28;20208;-77
2023/06/29 12:42:14;;;;;;;8.50;3.85;;;31.10;1.00;;;;;;5030435;28;20184;-74
2023/06/29 12:44:40;;;;;;;8.43;3.55;;;31.30;1.00;;;;;;5030895;28;20173;-75
2023/06/29 12:47:06;;;;;;;8.48;3.92;;;31.40;1.00;;;;;;5029275;28;20709;-76
2023/06/29 12:49:32;;;;;;;5.60;3.67;;;31.20;1.00;;;;;;5030252;28;20719;-75
2023/06/29 12:51:57;;;;;;;6.78;3.40;;;31.00;1.00;;;;;;5029194;28;20181;-75
2023/06/29 12:54:24;;;;;;;6.13;3.70;;;30.80;1.00;;;;;;5030423;28;20207;-75